Terminal Aerodrome Forecast
Issued by NWS

Home | Current Version | Previous Version | Text Only | Print | Product List | Glossary On
Versions: 1 2 3 4 5 6 7 8 9 10 11 12 13 14
335
FTUS42 KMLB 090542
TAFFPR
TAF
KFPR 090542Z 0906/1006 24011KT P6SM SCT050 BKN200 WS015/25032KT
     FM090700 26014G23KT P6SM BKN050
      TEMPO 0907/0909 -SHRA
     FM091700 27019G29KT P6SM BKN050
     FM100000 27013G19KT P6SM BKN050=

USA.gov is the U.S. government's official web portal to all federal, state and local government web resources and services.